Time;durP1;ratioP1;P1;durP2;ratioP2;P2;SDS_P1;SDS_P2;PMS_P1;PMS_P2;Temp;Humidity;BMP_temperature;BMP_pressure;BME280_temperature;BME280_humidity;BME280_pressure;Samples;Min_cycle;Max_cycle;Signal;HPM_P1;HPM_P2
2023/11/22 00:00:07;;;;;;;0.38;0.00;;;14.10;96.70;;;;;;5076245;28;20044;-67
2023/11/22 00:02:35;;;;;;;1.13;0.22;;;14.10;96.70;;;;;;5082069;28;20045;-68
2023/11/22 00:05:05;;;;;;;0.52;0.15;;;14.10;96.70;;;;;;5069761;28;20033;-68
2023/11/22 00:07:33;;;;;;;0.45;0.03;;;14.10;96.70;;;;;;5058056;28;20052;-68
2023/11/22 00:10:04;;;;;;;0.88;0.10;;;14.00;96.70;;;;;;5068637;28;20577;-67
2023/11/22 00:12:38;;;;;;;0.70;0.15;;;14.10;96.70;;;;;;5053307;28;20396;-69
2023/11/22 00:15:11;;;;;;;0.43;0.10;;;14.10;96.70;;;;;;5070028;28;20052;-67
2023/11/22 00:17:39;;;;;;;1.95;0.10;;;14.10;96.70;;;;;;5084543;28;20054;-67
2023/11/22 00:20:09;;;;;;;0.10;0.00;;;14.10;96.70;;;;;;5073822;28;20051;-67
2023/11/22 00:22:37;;;;;;;0.25;0.08;;;14.00;96.70;;;;;;5069181;28;20400;-67
2023/11/22 00:25:06;;;;;;;1.10;0.10;;;14.10;96.70;;;;;;5053291;28;20036;-67
2023/11/22 00:27:37;;;;;;;0.13;0.03;;;14.00;96.70;;;;;;5067195;28;20113;-67
2023/11/22 00:30:09;;;;;;;0.85;0.10;;;14.00;96.70;;;;;;5086034;28;20048;-67
2023/11/22 00:32:40;;;;;;;1.45;0.08;;;14.10;96.70;;;;;;5055771;28;20044;-67
2023/11/22 00:35:09;;;;;;;1.98;0.20;;;14.00;96.70;;;;;;5059316;28;20045;-67
2023/11/22 00:37:37;;;;;;;0.55;0.25;;;14.00;96.70;;;;;;5070289;28;20059;-67
2023/11/22 00:40:10;;;;;;;0.70;0.20;;;14.10;96.70;;;;;;5064600;28;20101;-67
2023/11/22 00:42:41;;;;;;;0.63;0.20;;;14.10;96.70;;;;;;5053104;28;20232;-67
2023/11/22 00:45:11;;;;;;;1.10;0.10;;;14.10;96.70;;;;;;5077240;28;20048;-67
2023/11/22 00:47:39;;;;;;;0.35;0.10;;;14.10;96.70;;;;;;5058961;28;20147;-67
2023/11/22 00:50:08;;;;;;;0.80;0.17;;;14.10;96.70;;;;;;5074035;28;20055;-67
2023/11/22 00:52:37;;;;;;;0.77;0.10;;;14.10;96.70;;;;;;5078831;28;20388;-67
2023/11/22 00:55:06;;;;;;;0.60;0.20;;;14.10;96.70;;;;;;5064468;28;20055;-67
2023/11/22 00:57:34;;;;;;;0.20;0.10;;;14.10;96.70;;;;;;5070225;28;20036;-67
2023/11/22 01:00:04;;;;;;;1.45;0.10;;;14.10;96.70;;;;;;5071800;28;20036;-69
2023/11/22 01:02:37;;;;;;;1.00;0.15;;;14.10;96.70;;;;;;5063393;28;20052;-68
2023/11/22 01:05:17;;;;;;;0.55;0.10;;;14.20;96.70;;;;;;5075042;28;20065;-67
2023/11/22 01:07:45;;;;;;;1.85;0.30;;;14.20;96.70;;;;;;5050563;28;20041;-67
2023/11/22 01:10:13;;;;;;;1.25;0.30;;;14.20;96.70;;;;;;5059702;28;20075;-68
2023/11/22 01:12:41;;;;;;;1.17;0.30;;;14.20;96.70;;;;;;5054523;28;20048;-67
2023/11/22 01:15:10;;;;;;;0.90;0.22;;;14.20;96.70;;;;;;5081370;28;20370;-67
2023/11/22 01:17:40;;;;;;;0.55;0.20;;;14.20;96.70;;;;;;5074774;28;20044;-67
2023/11/22 01:20:11;;;;;;;1.55;0.20;;;14.20;96.70;;;;;;5060055;28;20045;-68
2023/11/22 01:22:40;;;;;;;0.68;0.17;;;14.20;96.70;;;;;;5079735;28;20563;-68
2023/11/22 01:25:08;;;;;;;0.80;0.20;;;14.20;96.70;;;;;;5045270;28;20357;-67
2023/11/22 01:27:37;;;;;;;0.85;0.20;;;14.20;96.70;;;;;;5055258;28;20056;-68
2023/11/22 01:30:07;;;;;;;1.27;0.22;;;14.20;96.70;;;;;;5061351;28;20456;-67
2023/11/22 01:32:35;;;;;;;0.93;0.20;;;14.20;96.70;;;;;;5079252;28;20091;-67
2023/11/22 01:35:06;;;;;;;1.00;0.38;;;14.20;96.70;;;;;;5063204;28;20045;-68
2023/11/22 01:37:34;;;;;;;0.88;0.20;;;14.20;96.70;;;;;;5078294;28;20048;-67
2023/11/22 01:40:03;;;;;;;1.55;0.40;;;14.20;96.70;;;;;;5060128;28;20043;-69
2023/11/22 01:42:31;;;;;;;2.35;0.57;;;14.20;96.70;;;;;;5068445;28;20105;-68
2023/11/22 01:45:01;;;;;;;1.50;0.30;;;14.20;96.70;;;;;;5063570;28;20044;-67
2023/11/22 01:47:30;;;;;;;2.28;0.50;;;14.20;96.70;;;;;;5079014;28;20468;-67
2023/11/22 01:49:59;;;;;;;1.25;0.22;;;14.20;96.70;;;;;;5049910;28;20049;-67
2023/11/22 01:52:29;;;;;;;2.03;0.40;;;14.20;96.70;;;;;;5067300;28;20047;-68
2023/11/22 01:54:57;;;;;;;0.77;0.30;;;14.20;96.70;;;;;;5060110;28;20047;-68
2023/11/22 01:57:27;;;;;;;0.77;0.50;;;14.20;96.70;;;;;;5064965;28;20498;-68
2023/11/22 01:59:55;;;;;;;1.67;0.50;;;14.20;96.70;;;;;;5054532;28;20048;-68
2023/11/22 02:02:24;;;;;;;2.17;0.68;;;14.20;96.70;;;;;;5079472;28;20595;-68
2023/11/22 02:04:52;;;;;;;1.90;0.47;;;14.20;96.70;;;;;;5053440;28;20700;-68
2023/11/22 02:07:20;;;;;;;2.63;0.57;;;14.20;96.70;;;;;;5067341;28;20037;-68
2023/11/22 02:09:51;;;;;;;2.75;0.60;;;14.20;96.70;;;;;;5070562;28;20044;-69
2023/11/22 02:12:21;;;;;;;1.75;0.45;;;14.20;96.70;;;;;;5077487;28;20043;-68
2023/11/22 02:14:49;;;;;;;1.95;0.40;;;14.20;96.70;;;;;;5064099;28;20058;-68
2023/11/22 02:17:18;;;;;;;2.00;0.50;;;14.20;96.70;;;;;;5060464;28;20098;-68
2023/11/22 02:19:46;;;;;;;1.83;0.60;;;14.10;96.70;;;;;;5055883;28;20048;-68
2023/11/22 02:22:15;;;;;;;3.17;0.60;;;14.10;96.70;;;;;;5085945;28;20502;-68
2023/11/22 02:24:47;;;;;;;0.63;0.40;;;14.10;96.70;;;;;;5064186;28;20124;-64
2023/11/22 02:27:15;;;;;;;2.25;0.75;;;14.10;96.70;;;;;;5061739;28;20053;-66
2023/11/22 02:29:43;;;;;;;3.50;0.43;;;14.10;96.70;;;;;;5060889;28;20400;-65
2023/11/22 02:32:11;;;;;;;4.00;0.50;;;14.10;96.70;;;;;;5046366;28;20052;-65
2023/11/22 02:34:40;;;;;;;1.70;0.40;;;14.10;96.70;;;;;;5050246;28;20135;-64
2023/11/22 02:37:09;;;;;;;1.58;0.50;;;14.10;96.70;;;;;;5071754;28;20111;-65
2023/11/22 02:39:48;;;;;;;1.48;0.20;;;14.10;96.70;;;;;;5057086;28;20558;-64
2023/11/22 02:42:18;;;;;;;0.88;0.30;;;14.10;96.70;;;;;;5050379;28;20059;-65
2023/11/22 02:44:47;;;;;;;2.72;0.30;;;14.10;96.70;;;;;;5054708;28;20044;-65
2023/11/22 02:47:17;;;;;;;1.83;0.43;;;14.10;96.70;;;;;;5069679;28;20045;-64
2023/11/22 02:49:46;;;;;;;1.10;0.30;;;14.10;96.70;;;;;;5052240;28;20044;-64
2023/11/22 02:52:16;;;;;;;1.05;0.30;;;14.10;96.70;;;;;;5048889;28;20102;-64
2023/11/22 02:54:47;;;;;;;2.22;0.30;;;14.10;96.70;;;;;;5070553;28;20052;-65
2023/11/22 02:57:18;;;;;;;0.95;0.30;;;14.10;96.70;;;;;;5066888;28;20085;-64
2023/11/22 02:59:46;;;;;;;0.98;0.50;;;14.00;96.70;;;;;;5062060;28;20079;-64
2023/11/22 03:02:17;;;;;;;1.67;0.40;;;14.00;96.70;;;;;;5060892;28;20044;-65
2023/11/22 03:04:45;;;;;;;1.50;0.40;;;14.00;96.70;;;;;;5080755;28;20036;-65
2023/11/22 03:07:13;;;;;;;3.58;0.40;;;14.10;96.70;;;;;;5063461;28;20082;-65
2023/11/22 03:09:43;;;;;;;1.45;0.40;;;14.10;96.70;;;;;;5053028;28;20049;-64
2023/11/22 03:12:12;;;;;;;0.93;0.20;;;14.10;96.70;;;;;;5056583;28;20041;-64
2023/11/22 03:14:42;;;;;;;2.22;0.50;;;14.10;96.70;;;;;;5069548;28;20052;-64
2023/11/22 03:17:13;;;;;;;1.58;0.20;;;14.00;96.70;;;;;;5058757;28;20047;-65
2023/11/22 03:19:41;;;;;;;2.35;0.30;;;14.00;96.70;;;;;;5057926;28;20112;-64
2023/11/22 03:22:10;;;;;;;1.15;0.38;;;14.00;96.70;;;;;;5065288;28;20049;-64
2023/11/22 03:24:39;;;;;;;0.95;0.22;;;14.10;96.70;;;;;;5054000;28;20052;-64
2023/11/22 03:27:07;;;;;;;2.97;1.05;;;14.00;96.70;;;;;;5055866;28;20036;-64
2023/11/22 03:29:35;;;;;;;1.27;0.28;;;14.00;96.70;;;;;;5063485;28;20097;-64
2023/11/22 03:32:06;;;;;;;2.83;0.25;;;14.10;96.70;;;;;;5085022;28;20380;-65
2023/11/22 03:34:35;;;;;;;0.63;0.17;;;14.10;96.70;;;;;;5063749;28;20036;-64
2023/11/22 03:37:03;;;;;;;1.30;0.30;;;14.10;96.70;;;;;;5064288;28;20420;-65
2023/11/22 03:39:32;;;;;;;2.00;0.25;;;14.10;96.70;;;;;;5068978;28;20123;-64
2023/11/22 03:42:00;;;;;;;0.75;0.20;;;14.10;96.70;;;;;;5050470;28;20041;-64
2023/11/22 03:44:29;;;;;;;1.67;0.50;;;14.10;96.70;;;;;;5064952;28;20615;-64
2023/11/22 03:46:58;;;;;;;0.85;0.20;;;14.10;96.70;;;;;;5061104;28;20048;-64
2023/11/22 03:49:28;;;;;;;1.20;0.20;;;14.10;96.70;;;;;;5075844;28;20052;-64
2023/11/22 03:51:56;;;;;;;0.50;0.20;;;14.10;96.70;;;;;;5054164;28;20064;-64
2023/11/22 03:54:24;;;;;;;1.20;0.20;;;14.20;96.70;;;;;;5067267;28;20068;-63
2023/11/22 03:56:52;;;;;;;0.95;0.30;;;14.20;96.70;;;;;;5066502;28;20132;-64
2023/11/22 03:59:24;;;;;;;1.40;0.30;;;14.20;96.70;;;;;;5067111;28;20074;-67
2023/11/22 04:01:52;;;;;;;1.10;0.30;;;14.20;96.70;;;;;;5070991;28;20045;-67
2023/11/22 04:04:21;;;;;;;0.85;0.40;;;14.10;96.70;;;;;;5075848;28;20441;-67
2023/11/22 04:06:52;;;;;;;0.57;0.20;;;14.20;96.70;;;;;;5080129;28;20040;-67
2023/11/22 04:09:21;;;;;;;2.97;0.30;;;14.20;96.70;;;;;;5084402;28;20134;-64
2023/11/22 04:11:49;;;;;;;1.02;0.40;;;14.10;96.70;;;;;;5076175;28;20044;-63
2023/11/22 04:14:20;;;;;;;1.40;0.57;;;14.10;96.70;;;;;;5073365;28;20052;-63
2023/11/22 04:16:49;;;;;;;0.98;0.30;;;14.10;96.70;;;;;;5073888;28;20028;-64
2023/11/22 04:19:17;;;;;;;1.92;0.40;;;14.10;96.70;;;;;;5074809;28;20060;-64
2023/11/22 04:21:46;;;;;;;1.25;0.30;;;14.10;96.70;;;;;;5070052;28;20051;-64
2023/11/22 04:24:17;;;;;;;2.38;0.50;;;14.10;96.70;;;;;;5063328;28;20078;-63
2023/11/22 04:26:46;;;;;;;2.28;0.40;;;14.10;96.70;;;;;;5073168;28;20722;-64
2023/11/22 04:29:16;;;;;;;0.80;0.40;;;14.10;96.70;;;;;;5074832;28;20408;-65
2023/11/22 04:31:46;;;;;;;2.47;0.68;;;14.10;96.70;;;;;;5082303;28;20503;-64
2023/11/22 04:34:14;;;;;;;1.48;0.45;;;14.10;96.70;;;;;;5069855;28;20380;-65
2023/11/22 04:36:46;;;;;;;0.98;0.43;;;14.00;96.70;;;;;;5077657;28;20527;-65
2023/11/22 04:39:17;;;;;;;1.48;0.40;;;14.00;96.70;;;;;;5078494;28;20040;-64
2023/11/22 04:41:45;;;;;;;0.98;0.55;;;14.00;96.70;;;;;;5071875;28;20115;-64
2023/11/22 04:44:14;;;;;;;1.27;0.50;;;14.00;96.70;;;;;;5082452;28;20040;-64
2023/11/22 04:46:42;;;;;;;2.70;0.40;;;14.00;96.70;;;;;;5074252;28;20055;-65
2023/11/22 04:49:10;;;;;;;1.15;0.60;;;13.90;96.70;;;;;;5072070;28;20537;-63
2023/11/22 04:51:39;;;;;;;2.78;0.70;;;14.00;96.70;;;;;;5063135;28;20037;-64
2023/11/22 04:54:07;;;;;;;1.48;0.40;;;13.90;96.70;;;;;;5066352;28;20044;-65
2023/11/22 04:56:37;;;;;;;2.85;0.77;;;13.90;96.70;;;;;;5070154;28;20061;-63
2023/11/22 04:59:05;;;;;;;2.35;0.40;;;13.90;96.70;;;;;;5064840;28;20090;-64
2023/11/22 05:01:34;;;;;;;0.93;0.43;;;13.90;96.70;;;;;;5066720;28;20504;-63
2023/11/22 05:04:03;;;;;;;2.15;0.70;;;13.90;96.70;;;;;;5058296;28;20049;-66
2023/11/22 05:06:31;;;;;;;1.00;0.40;;;13.90;96.70;;;;;;5070572;28;20358;-63
2023/11/22 05:09:00;;;;;;;1.77;0.40;;;13.90;96.70;;;;;;5054159;28;20053;-64
2023/11/22 05:11:28;;;;;;;1.60;0.50;;;13.80;96.70;;;;;;5065824;28;20036;-64
2023/11/22 05:13:58;;;;;;;3.22;1.08;;;13.80;96.70;;;;;;5077435;28;20105;-64
2023/11/22 05:16:27;;;;;;;1.50;0.60;;;13.80;96.70;;;;;;5065430;28;20031;-64
2023/11/22 05:18:56;;;;;;;4.65;1.60;;;13.80;96.70;;;;;;5072152;28;20041;-64
2023/11/22 05:21:24;;;;;;;1.45;0.45;;;13.80;96.70;;;;;;5076844;28;20040;-64
2023/11/22 05:23:54;;;;;;;0.88;0.40;;;13.80;96.70;;;;;;5077354;28;20655;-64
2023/11/22 05:26:22;;;;;;;2.00;0.77;;;13.70;96.70;;;;;;5062931;28;20944;-65
2023/11/22 05:28:53;;;;;;;3.35;0.70;;;13.70;96.70;;;;;;5069748;28;20551;-64
2023/11/22 05:31:23;;;;;;;0.80;0.40;;;13.70;96.70;;;;;;5067680;28;20052;-64
2023/11/22 05:33:51;;;;;;;3.05;0.70;;;13.70;96.70;;;;;;5067375;28;20041;-64
2023/11/22 05:36:20;;;;;;;5.35;1.25;;;13.80;96.70;;;;;;5069040;28;20128;-64
2023/11/22 05:38:48;;;;;;;1.65;0.40;;;13.80;96.70;;;;;;5077342;28;20037;-64
2023/11/22 05:41:16;;;;;;;1.08;0.50;;;13.80;96.70;;;;;;5068069;28;20040;-64
2023/11/22 05:43:44;;;;;;;2.38;0.43;;;13.80;96.70;;;;;;5058711;28;20126;-64
2023/11/22 05:46:13;;;;;;;1.90;0.38;;;13.70;96.70;;;;;;5063889;28;20124;-64
2023/11/22 05:48:42;;;;;;;2.63;0.47;;;13.70;96.70;;;;;;5068402;28;20053;-64
2023/11/22 05:51:11;;;;;;;2.17;0.50;;;13.70;96.70;;;;;;5081235;28;20055;-63
2023/11/22 05:53:40;;;;;;;1.38;0.50;;;13.80;96.70;;;;;;5084380;28;20036;-64
2023/11/22 05:56:09;;;;;;;2.72;0.40;;;13.80;96.70;;;;;;5062890;28;20036;-63
2023/11/22 05:58:38;;;;;;;1.05;0.50;;;13.80;96.70;;;;;;5078726;28;20071;-63
2023/11/22 06:01:07;;;;;;;3.95;0.40;;;13.80;96.70;;;;;;5078878;28;20560;-63
2023/11/22 06:03:36;;;;;;;2.13;0.50;;;13.80;96.70;;;;;;5077845;28;20472;-63
2023/11/22 06:06:07;;;;;;;1.25;0.50;;;13.80;96.70;;;;;;5070560;28;20063;-64
2023/11/22 06:08:35;;;;;;;1.67;0.40;;;13.80;96.70;;;;;;5075528;28;20048;-63
2023/11/22 06:11:03;;;;;;;0.95;0.50;;;13.90;96.70;;;;;;5079681;28;20067;-63
2023/11/22 06:13:32;;;;;;;1.23;0.30;;;13.90;96.70;;;;;;5073119;28;20056;-63
2023/11/22 06:16:00;;;;;;;1.48;0.40;;;13.90;96.70;;;;;;5074237;28;20441;-63
2023/11/22 06:18:29;;;;;;;1.38;0.60;;;13.90;96.70;;;;;;5055892;28;20058;-64
2023/11/22 06:20:58;;;;;;;1.63;0.40;;;13.90;96.70;;;;;;5059380;28;20415;-64
2023/11/22 06:23:28;;;;;;;1.58;0.55;;;13.90;96.70;;;;;;5079049;28;20044;-63
2023/11/22 06:25:56;;;;;;;0.68;0.22;;;13.90;96.70;;;;;;5078320;28;20045;-63
2023/11/22 06:28:25;;;;;;;1.42;0.40;;;13.90;96.70;;;;;;5070017;28;20411;-64
2023/11/22 06:30:53;;;;;;;1.27;0.30;;;13.90;96.70;;;;;;5074402;28;20076;-63
2023/11/22 06:33:21;;;;;;;1.02;0.47;;;13.90;96.70;;;;;;5075596;28;20048;-64
2023/11/22 06:35:50;;;;;;;2.13;0.52;;;13.90;96.70;;;;;;5077883;28;20054;-65
2023/11/22 06:38:18;;;;;;;1.63;0.45;;;13.90;96.70;;;;;;5076125;28;20071;-67
2023/11/22 06:40:48;;;;;;;2.97;0.68;;;13.90;96.70;;;;;;5074051;28;20044;-66
2023/11/22 06:43:16;;;;;;;3.97;0.73;;;13.90;96.70;;;;;;5076064;28;20148;-67
2023/11/22 06:45:44;;;;;;;1.40;0.47;;;13.90;96.70;;;;;;5074843;28;20037;-66
2023/11/22 06:48:13;;;;;;;4.25;0.60;;;14.00;96.70;;;;;;5056761;28;20063;-66
2023/11/22 06:50:42;;;;;;;2.38;0.43;;;14.00;96.70;;;;;;5072225;28;20040;-66
2023/11/22 06:53:11;;;;;;;4.57;0.60;;;14.00;96.70;;;;;;5069707;28;20040;-66
2023/11/22 06:55:40;;;;;;;1.25;0.60;;;14.00;96.70;;;;;;5069426;28;20041;-64
2023/11/22 06:58:11;;;;;;;2.20;0.40;;;14.00;96.70;;;;;;5072040;28;20040;-66
2023/11/22 07:00:40;;;;;;;2.22;0.52;;;14.00;96.70;;;;;;5071016;28;20044;-65
2023/11/22 07:03:08;;;;;;;1.52;0.50;;;14.00;96.70;;;;;;5071720;28;20060;-65
2023/11/22 07:05:38;;;;;;;4.30;0.60;;;14.00;96.70;;;;;;5072313;28;20041;-65
2023/11/22 07:08:07;;;;;;;2.55;0.50;;;14.00;96.70;;;;;;5067030;28;20380;-65
2023/11/22 07:10:36;;;;;;;1.95;0.77;;;14.00;96.70;;;;;;5071876;28;20439;-65
2023/11/22 07:13:05;;;;;;;2.70;0.60;;;13.90;96.70;;;;;;5069831;28;20048;-65
2023/11/22 07:15:34;;;;;;;5.15;0.57;;;13.90;96.70;;;;;;5071655;28;20771;-65
2023/11/22 07:18:03;;;;;;;1.27;0.50;;;13.90;96.70;;;;;;5067115;28;20044;-65
2023/11/22 07:20:32;;;;;;;0.60;0.28;;;13.90;96.70;;;;;;5067260;28;20052;-63
2023/11/22 07:23:02;;;;;;;1.52;0.30;;;13.90;96.70;;;;;;5067558;28;20060;-64
2023/11/22 07:25:31;;;;;;;2.10;0.52;;;13.90;96.70;;;;;;5067303;28;20511;-64
2023/11/22 07:28:00;;;;;;;3.75;0.50;;;14.00;96.70;;;;;;5078734;28;20086;-68
2023/11/22 07:30:32;;;;;;;1.02;0.50;;;14.00;96.70;;;;;;5071421;28;20044;-66
2023/11/22 07:33:02;;;;;;;1.70;0.57;;;14.00;96.70;;;;;;5078581;28;20036;-65
2023/11/22 07:35:31;;;;;;;2.55;0.52;;;14.00;96.70;;;;;;5069129;28;20041;-65
2023/11/22 07:38:00;;;;;;;2.55;0.80;;;14.00;96.70;;;;;;5067496;28;20057;-66
2023/11/22 07:40:28;;;;;;;2.83;0.50;;;14.00;96.70;;;;;;5067756;28;20056;-66
2023/11/22 07:42:56;;;;;;;3.42;0.40;;;14.10;96.70;;;;;;5071131;28;20068;-66
2023/11/22 07:45:24;;;;;;;0.85;0.30;;;14.10;96.70;;;;;;5071106;28;20037;-65
2023/11/22 07:47:56;;;;;;;1.40;0.50;;;14.10;96.70;;;;;;5070473;28;20176;-66
2023/11/22 07:50:26;;;;;;;1.25;0.38;;;14.10;96.70;;;;;;5087861;28;20043;-66
2023/11/22 07:52:54;;;;;;;2.95;0.60;;;14.20;96.70;;;;;;5072055;28;20078;-65
2023/11/22 07:55:23;;;;;;;3.50;0.50;;;14.10;96.70;;;;;;5063712;28;20049;-65
2023/11/22 07:57:53;;;;;;;0.68;0.40;;;14.20;96.70;;;;;;5063260;28;20044;-66
2023/11/22 08:00:22;;;;;;;2.65;0.85;;;14.20;96.70;;;;;;5057331;28;20079;-65
2023/11/22 08:02:54;;;;;;;3.92;1.00;;;14.20;96.70;;;;;;5051300;28;20378;-65
2023/11/22 08:05:25;;;;;;;6.45;0.90;;;14.20;96.70;;;;;;5084131;28;20040;-64
2023/11/22 08:07:54;;;;;;;2.40;0.50;;;14.20;96.70;;;;;;5059357;28;20146;-66
2023/11/22 08:10:25;;;;;;;1.95;0.47;;;14.20;96.70;;;;;;5071356;28;20045;-65
2023/11/22 08:12:54;;;;;;;2.53;0.52;;;14.20;96.70;;;;;;5051291;28;20041;-65
2023/11/22 08:15:22;;;;;;;2.67;0.60;;;14.20;96.70;;;;;;5059655;28;20377;-66
2023/11/22 08:17:50;;;;;;;2.42;0.47;;;14.20;96.70;;;;;;5056152;28;20045;-67
2023/11/22 08:20:20;;;;;;;1.80;0.63;;;14.20;96.70;;;;;;5070867;28;20036;-66
2023/11/22 08:22:50;;;;;;;2.47;0.60;;;14.20;96.70;;;;;;5064906;28;20060;-66
2023/11/22 08:25:19;;;;;;;4.38;0.70;;;14.20;96.70;;;;;;5068634;28;20047;-66
2023/11/22 08:27:47;;;;;;;5.68;0.60;;;14.20;96.70;;;;;;5081465;28;20097;-66
2023/11/22 08:30:17;;;;;;;2.55;0.50;;;14.20;96.70;;;;;;5057927;28;20040;-66
2023/11/22 08:32:53;;;;;;;3.50;0.70;;;14.20;96.70;;;;;;5063485;28;20095;-66
2023/11/22 08:35:23;;;;;;;;;;;14.30;96.70;;;;;;5067564;28;20549;-69
2023/11/22 08:37:54;;;;;;;2.85;0.50;;;14.30;96.70;;;;;;5073932;28;19931;-70
2023/11/22 08:40:22;;;;;;;2.60;0.82;;;14.30;96.70;;;;;;5087909;28;20044;-69
2023/11/22 08:42:50;;;;;;;2.00;0.70;;;14.30;96.70;;;;;;5063803;28;20125;-69
2023/11/22 08:45:19;;;;;;;2.90;0.55;;;14.30;96.70;;;;;;5064070;28;20374;-65
2023/11/22 08:47:47;;;;;;;3.35;0.52;;;14.30;96.70;;;;;;5073396;28;20064;-65
2023/11/22 08:50:16;;;;;;;1.75;0.60;;;14.30;96.70;;;;;;5069366;28;20054;-65
2023/11/22 08:52:46;;;;;;;4.45;0.70;;;14.30;96.70;;;;;;5077061;28;20040;-68
2023/11/22 08:55:17;;;;;;;2.90;0.70;;;14.40;96.70;;;;;;5078488;28;20052;-65
2023/11/22 08:57:47;;;;;;;3.15;0.57;;;14.30;96.70;;;;;;5064326;28;20750;-65
2023/11/22 09:00:16;;;;;;;1.95;0.65;;;14.40;96.70;;;;;;5070403;28;20043;-65
2023/11/22 09:02:44;;;;;;;1.48;0.65;;;14.40;96.70;;;;;;5051769;28;20048;-69
2023/11/22 09:05:12;;;;;;;3.00;0.90;;;14.40;96.70;;;;;;5070448;28;20072;-69
2023/11/22 09:07:41;;;;;;;3.67;0.50;;;14.40;96.70;;;;;;5063152;28;20120;-69
2023/11/22 09:10:11;;;;;;;7.60;0.70;;;14.40;96.70;;;;;;5075389;28;20047;-69
2023/11/22 09:12:41;;;;;;;4.07;0.80;;;14.40;96.70;;;;;;5077000;28;20044;-68
2023/11/22 09:15:13;;;;;;;2.42;0.65;;;14.50;96.70;;;;;;5087774;28;20401;-71
2023/11/22 09:17:48;;;;;;;2.85;0.63;;;14.50;96.70;;;;;;5069923;28;20037;-67
2023/11/22 09:20:17;;;;;;;2.88;0.80;;;14.50;96.70;;;;;;5072177;28;20071;-66
2023/11/22 09:22:48;;;;;;;2.95;1.10;;;14.50;96.70;;;;;;5088098;28;20723;-65
2023/11/22 09:25:18;;;;;;;4.03;1.70;;;14.60;96.70;;;;;;5079636;28;20143;-65
2023/11/22 09:27:51;;;;;;;3.05;1.13;;;14.60;96.70;;;;;;5052002;28;20049;-69
2023/11/22 09:30:38;;;;;;;1.75;0.77;;;14.60;96.70;;;;;;5062343;28;20041;-69
2023/11/22 09:33:08;;;;;;;3.60;1.00;;;14.70;96.70;;;;;;5069503;28;21259;-68
2023/11/22 09:35:39;;;;;;;4.78;1.02;;;14.70;96.70;;;;;;5078936;28;20119;-69
2023/11/22 09:38:13;;;;;;;1.58;0.82;;;14.80;96.70;;;;;;5082211;28;20040;-66
2023/11/22 09:40:43;;;;;;;3.95;1.33;;;14.80;96.70;;;;;;5079230;28;20068;-66
2023/11/22 09:43:17;;;;;;;2.53;1.30;;;14.80;96.70;;;;;;5074275;28;20119;-66
2023/11/22 09:45:49;;;;;;;3.50;1.30;;;14.90;96.70;;;;;;5078056;28;20138;-66
2023/11/22 09:48:27;;;;;;;4.60;1.93;;;14.90;96.70;;;;;;5076921;28;20060;-66
2023/11/22 09:51:04;;;;;;;2.85;1.23;;;15.00;96.70;;;;;;5077744;28;20369;-66
2023/11/22 09:53:34;;;;;;;3.57;2.10;;;15.00;96.70;;;;;;5075250;28;20072;-67
2023/11/22 09:56:06;;;;;;;3.40;1.58;;;15.00;96.70;;;;;;5079692;28;20495;-68
2023/11/22 09:58:40;;;;;;;6.97;3.72;;;15.00;96.70;;;;;;5068293;28;20056;-65
2023/11/22 10:01:11;;;;;;;11.60;6.25;;;15.10;96.70;;;;;;5077093;28;20041;-66
2023/11/22 10:03:40;;;;;;;4.45;1.65;;;15.10;96.70;;;;;;5069600;28;20040;-66
2023/11/22 10:06:09;;;;;;;8.95;2.22;;;15.10;96.70;;;;;;5077968;28;20037;-67
2023/11/22 10:08:38;;;;;;;2.83;1.17;;;15.10;96.70;;;;;;5069249;28;20384;-69
2023/11/22 10:11:07;;;;;;;2.60;1.27;;;15.20;96.70;;;;;;5079446;28;20585;-69
2023/11/22 10:13:37;;;;;;;2.70;1.30;;;15.20;96.70;;;;;;5088125;28;20048;-68
2023/11/22 10:16:11;;;;;;;2.00;0.70;;;15.20;96.70;;;;;;5078766;28;20492;-70
2023/11/22 10:18:43;;;;;;;2.55;0.80;;;15.20;96.70;;;;;;5080016;28;20032;-70
2023/11/22 10:21:23;;;;;;;2.03;0.70;;;15.20;96.70;;;;;;5077307;28;20040;-69
2023/11/22 10:23:56;;;;;;;4.60;0.77;;;15.20;96.70;;;;;;5081725;28;20119;-65
2023/11/22 10:26:28;;;;;;;2.42;0.68;;;15.20;96.70;;;;;;5080642;28;20036;-65
2023/11/22 10:28:58;;;;;;;3.50;0.90;;;15.20;96.70;;;;;;5068141;28;20353;-66
2023/11/22 10:31:28;;;;;;;5.78;0.68;;;15.20;96.70;;;;;;5077543;28;20043;-65
2023/11/22 10:33:57;;;;;;;2.60;0.50;;;15.20;96.70;;;;;;5084797;28;20106;-69
2023/11/22 10:36:27;;;;;;;2.45;0.80;;;15.20;96.70;;;;;;5073320;28;20040;-68
2023/11/22 10:38:57;;;;;;;3.03;0.93;;;15.20;96.70;;;;;;5071845;28;20094;-69
2023/11/22 10:41:27;;;;;;;3.72;0.52;;;15.10;96.70;;;;;;5076800;28;20048;-69
2023/11/22 10:43:59;;;;;;;2.67;0.82;;;15.10;96.70;;;;;;5072536;28;20032;-65
2023/11/22 10:46:29;;;;;;;1.95;0.40;;;15.00;96.70;;;;;;5068029;28;20102;-65
2023/11/22 10:48:59;;;;;;;4.65;1.15;;;15.00;96.70;;;;;;5067627;28;20531;-66
2023/11/22 10:51:31;;;;;;;2.08;0.93;;;15.00;96.70;;;;;;5075650;28;20048;-66
2023/11/22 10:54:07;;;;;;;1.67;0.60;;;15.00;96.70;;;;;;5076593;28;20597;-65
2023/11/22 10:56:39;;;;;;;2.72;0.70;;;15.00;96.70;;;;;;5075008;28;20072;-66
2023/11/22 10:59:14;;;;;;;3.88;0.65;;;15.00;96.70;;;;;;5067920;28;20044;-69
2023/11/22 11:01:48;;;;;;;2.88;0.50;;;15.00;96.70;;;;;;5076797;28;20048;-69
2023/11/22 11:04:24;;;;;;;5.25;1.15;;;15.00;96.70;;;;;;5076545;28;20068;-70
2023/11/22 11:06:57;;;;;;;2.53;0.80;;;15.00;96.70;;;;;;5071981;28;20511;-70
2023/11/22 11:09:32;;;;;;;3.03;0.85;;;15.00;96.70;;;;;;5079146;28;20037;-70
2023/11/22 11:12:03;;;;;;;3.75;0.70;;;15.10;96.70;;;;;;5068743;28;20051;-69
2023/11/22 11:14:39;;;;;;;4.22;0.93;;;15.20;96.70;;;;;;5078095;28;20150;-69
2023/11/22 11:17:09;;;;;;;3.40;1.23;;;15.20;96.70;;;;;;5073329;28;20735;-66
2023/11/22 11:19:38;;;;;;;3.63;1.30;;;15.20;96.70;;;;;;5066977;28;20054;-66
2023/11/22 11:22:13;;;;;;;3.50;0.70;;;15.20;96.70;;;;;;5072271;28;20045;-65
2023/11/22 11:24:44;;;;;;;5.78;0.70;;;15.20;96.70;;;;;;5075750;28;20595;-66
2023/11/22 11:27:13;;;;;;;4.28;1.10;;;15.30;96.70;;;;;;5071080;28;20055;-66
2023/11/22 11:29:44;;;;;;;1.50;0.60;;;15.30;96.70;;;;;;5067177;28;20565;-66
2023/11/22 11:32:30;;;;;;;2.92;0.77;;;15.30;96.70;;;;;;5076026;28;20045;-66
2023/11/22 11:35:01;;;;;;;2.85;0.95;;;15.30;96.70;;;;;;5067974;28;20058;-68
2023/11/22 11:37:30;;;;;;;3.28;0.80;;;15.30;96.70;;;;;;5080885;28;20177;-69
2023/11/22 11:39:58;;;;;;;1.98;0.82;;;15.40;96.70;;;;;;5076078;28;20078;-69
2023/11/22 11:42:27;;;;;;;1.73;0.70;;;15.40;96.70;;;;;;5086490;28;20044;-69
2023/11/22 11:45:10;;;;;;;1.88;0.60;;;15.60;96.70;;;;;;5069212;28;20040;-69
2023/11/22 11:47:38;;;;;;;2.92;0.50;;;15.70;96.70;;;;;;5043087;28;20060;-70
2023/11/22 11:50:07;;;;;;;1.35;0.50;;;15.70;96.70;;;;;;5076676;28;20583;-69
2023/11/22 11:52:39;;;;;;;1.92;0.50;;;15.70;96.70;;;;;;5072491;28;20431;-68
2023/11/22 11:55:09;;;;;;;0.90;0.43;;;15.70;96.70;;;;;;5069784;28;20052;-68
2023/11/22 11:57:37;;;;;;;5.10;0.70;;;15.70;96.70;;;;;;5051599;28;20052;-68
2023/11/22 12:00:09;;;;;;;2.05;0.60;;;15.70;96.70;;;;;;5068868;28;20135;-68
2023/11/22 12:02:40;;;;;;;2.47;0.88;;;15.70;96.70;;;;;;5067468;28;20040;-69
2023/11/22 12:05:09;;;;;;;4.15;1.25;;;15.70;96.70;;;;;;5074668;28;20049;-68
2023/11/22 12:07:39;;;;;;;2.17;0.60;;;15.70;96.70;;;;;;5070864;28;20124;-69
2023/11/22 12:10:10;;;;;;;3.63;0.80;;;15.70;96.70;;;;;;5066915;28;20125;-70
2023/11/22 12:12:41;;;;;;;4.75;0.98;;;15.70;96.70;;;;;;5066751;28;20081;-68
2023/11/22 12:15:17;;;;;;;1.73;0.40;;;15.60;96.70;;;;;;5066892;28;20498;-68
2023/11/22 12:17:51;;;;;;;4.70;0.50;;;15.60;96.70;;;;;;5070493;28;20044;-68
2023/11/22 12:20:22;;;;;;;2.63;0.55;;;15.50;96.70;;;;;;5072390;28;20086;-67
2023/11/22 12:22:55;;;;;;;2.45;0.77;;;15.50;96.70;;;;;;5067822;28;20439;-68
2023/11/22 12:25:27;;;;;;;1.38;0.60;;;15.50;96.70;;;;;;5068829;28;20419;-68
2023/11/22 12:27:57;;;;;;;3.95;0.95;;;15.50;96.70;;;;;;5069082;28;20043;-68
2023/11/22 12:30:33;;;;;;;6.75;0.85;;;15.60;96.70;;;;;;5075719;28;20048;-68
2023/11/22 12:33:05;;;;;;;4.22;1.42;;;15.50;96.70;;;;;;5069981;28;20086;-68
2023/11/22 12:35:34;;;;;;;3.75;0.75;;;15.60;96.70;;;;;;5072444;28;20040;-68
2023/11/22 12:38:06;;;;;;;5.18;0.70;;;15.70;96.70;;;;;;5036030;28;20135;-68
2023/11/22 12:40:37;;;;;;;2.25;0.40;;;15.70;96.70;;;;;;5071555;28;20052;-68
2023/11/22 12:43:08;;;;;;;3.83;0.85;;;15.70;96.70;;;;;;5068418;28;20098;-67
2023/11/22 12:45:40;;;;;;;5.20;1.00;;;15.70;96.70;;;;;;5069976;28;20095;-68
2023/11/22 12:48:23;;;;;;;4.43;0.88;;;15.80;96.70;;;;;;5074599;28;20056;-67
2023/11/22 12:50:54;;;;;;;3.47;0.55;;;15.80;96.70;;;;;;5077610;28;20138;-68
2023/11/22 12:53:27;;;;;;;0.93;0.60;;;15.80;96.70;;;;;;5064288;28;20055;-68
2023/11/22 12:55:57;;;;;;;2.35;1.05;;;15.90;96.70;;;;;;5065188;28;20049;-69
2023/11/22 12:58:26;;;;;;;2.95;0.60;;;15.90;96.70;;;;;;5065137;28;20570;-68
2023/11/22 13:01:00;;;;;;;4.93;0.70;;;15.90;96.70;;;;;;5063391;28;20479;-69